Time;durP1;ratioP1;P1;durP2;ratioP2;P2;SDS_P1;SDS_P2;PMS_P1;PMS_P2;Temp;Humidity;BMP_temperature;BMP_pressure;BME280_temperature;BME280_humidity;BME280_pressure;Samples;Min_cycle;Max_cycle;Signal;HPM_P1;HPM_P2
2021/10/08 00:01:48;;;;;;;30.10;13.40;;;;;;;8.54;81.32;101625.66;112825;1200;24995;-62
2021/10/08 00:04:19;;;;;;;33.40;12.70;;;;;;;8.47;81.15;101624.05;112569;1193;22418;-62
2021/10/08 00:06:52;;;;;;;29.90;13.90;;;;;;;8.40;80.97;101623.48;112647;1200;22438;-62
2021/10/08 00:09:27;;;;;;;30.50;14.90;;;;;;;8.34;80.97;101624.52;112682;1200;24275;-61
2021/10/08 00:11:59;;;;;;;28.00;13.20;;;;;;;8.28;81.02;101624.25;112567;1193;25210;-61
2021/10/08 00:14:30;;;;;;;30.70;14.20;;;;;;;8.24;81.18;101626.77;112650;1200;24154;-60
2021/10/08 00:17:01;;;;;;;29.50;12.90;;;;;;;8.22;81.66;101628.00;112627;1193;24062;-61
2021/10/08 00:19:31;;;;;;;33.70;14.60;;;;;;;8.22;81.67;101628.09;112538;1200;25026;-61
2021/10/08 00:22:03;;;;;;;31.60;12.60;;;;;;;8.23;81.75;101631.23;112579;1200;25453;-61
2021/10/08 00:24:34;;;;;;;31.70;13.20;;;;;;;8.23;81.77;101630.84;112579;1200;22440;-61
2021/10/08 00:27:05;;;;;;;31.20;13.20;;;;;;;8.22;81.47;101629.98;112707;1199;24070;-60
2021/10/08 00:29:35;;;;;;;25.90;11.60;;;;;;;8.21;81.37;101632.64;112607;1200;24998;-61
2021/10/08 00:32:07;;;;;;;32.20;11.70;;;;;;;8.17;81.31;101633.11;112508;1201;25000;-61
2021/10/08 00:34:38;;;;;;;29.80;10.90;;;;;;;8.14;81.09;101631.11;112719;1200;24123;-60
2021/10/08 00:37:09;;;;;;;29.50;11.60;;;;;;;8.09;80.91;101629.54;112679;1193;22424;-60
2021/10/08 00:39:40;;;;;;;22.20;9.20;;;;;;;8.03;80.85;101631.73;112721;1200;25133;-61
2021/10/08 00:42:11;;;;;;;26.80;12.50;;;;;;;7.98;80.82;101636.11;112607;1200;25100;-61
2021/10/08 00:44:42;;;;;;;27.30;10.40;;;;;;;7.95;80.90;101632.38;112652;1200;22443;-59
2021/10/08 00:47:16;;;;;;;27.90;11.30;;;;;;;7.93;81.17;101643.14;112553;1200;22539;-61
2021/10/08 00:49:47;;;;;;;37.20;13.20;;;;;;;7.91;81.02;101645.16;112511;1201;24064;-60
2021/10/08 00:52:19;;;;;;;29.20;11.80;;;;;;;7.87;81.08;101647.63;112572;1200;24071;-61
2021/10/08 00:54:49;;;;;;;31.50;10.50;;;;;;;7.85;81.38;101648.14;112672;1193;22435;-61
2021/10/08 00:57:21;;;;;;;30.30;11.40;;;;;;;7.83;81.11;101649.67;112619;1193;22897;-61
2021/10/08 00:59:52;;;;;;;32.50;10.50;;;;;;;7.80;80.95;101650.15;112495;1195;22469;-60
2021/10/08 01:02:25;;;;;;;27.80;10.10;;;;;;;7.76;80.89;101651.80;112873;1201;22479;-61
2021/10/08 01:04:57;;;;;;;32.60;12.60;;;;;;;7.71;80.79;101651.10;112586;1200;22531;-61
2021/10/08 01:07:28;;;;;;;32.20;10.10;;;;;;;7.66;80.60;101650.88;112781;1193;22437;-61
2021/10/08 01:09:59;;;;;;;28.80;10.20;;;;;;;7.59;80.43;101656.48;112635;1194;25041;-61
2021/10/08 01:12:30;;;;;;;28.90;10.40;;;;;;;7.51;80.44;101650.60;112571;1200;22459;-60
2021/10/08 01:15:01;;;;;;;30.70;11.00;;;;;;;7.44;80.40;101651.44;112711;1200;25082;-62
2021/10/08 01:17:33;;;;;;;26.40;10.20;;;;;;;7.38;80.44;101651.00;112634;1193;24119;-61
2021/10/08 01:20:09;;;;;;;25.10;9.90;;;;;;;7.33;80.37;101649.88;112859;1199;22436;-61
2021/10/08 01:22:40;;;;;;;25.30;10.80;;;;;;;7.28;80.24;101651.41;112828;1199;25102;-61
2021/10/08 01:25:11;;;;;;;34.10;11.30;;;;;;;7.21;80.23;101649.85;112925;1199;25110;-59
2021/10/08 01:27:43;;;;;;;24.70;10.10;;;;;;;7.15;80.24;101652.32;112969;1199;22440;-59
2021/10/08 01:30:14;;;;;;;24.90;10.80;;;;;;;7.08;80.26;101654.10;112846;1199;24102;-61
2021/10/08 01:32:46;;;;;;;33.10;10.70;;;;;;;7.04;80.79;101659.09;112882;1199;25664;-61
2021/10/08 01:35:18;;;;;;;31.90;10.90;;;;;;;7.00;80.74;101662.81;112640;1199;25740;-60
2021/10/08 01:37:49;;;;;;;29.20;9.40;;;;;;;6.96;80.74;101662.46;112791;1197;22996;-62
2021/10/08 01:40:21;;;;;;;26.30;9.60;;;;;;;6.92;80.50;101662.30;112870;1192;22437;-62
2021/10/08 01:42:52;;;;;;;29.60;9.60;;;;;;;6.86;80.26;101661.52;112881;1199;24044;-59
2021/10/08 01:45:24;;;;;;;29.20;11.30;;;;;;;6.82;80.24;101666.56;113081;1199;22463;-61
2021/10/08 01:47:55;;;;;;;26.70;12.00;;;;;;;6.80;80.64;101665.56;113238;1199;25097;-61
2021/10/08 01:50:26;;;;;;;34.40;12.30;;;;;;;6.81;80.68;101664.59;113078;1199;26302;-62
2021/10/08 01:52:58;;;;;;;29.30;10.30;;;;;;;6.80;80.53;101663.74;112827;1199;24069;-62
2021/10/08 01:55:29;;;;;;;39.60;11.10;;;;;;;6.74;80.16;101658.75;112750;1199;22456;-62
2021/10/08 01:58:00;;;;;;;28.70;10.60;;;;;;;6.69;80.13;101664.08;112858;1199;24027;-61
2021/10/08 02:00:30;;;;;;;30.80;10.40;;;;;;;6.62;79.97;101667.88;112832;1199;22435;-60
2021/10/08 02:03:01;;;;;;;28.20;10.60;;;;;;;6.55;79.89;101669.88;113101;1199;25259;-61
2021/10/08 02:05:33;;;;;;;27.20;10.40;;;;;;;6.49;79.79;101672.98;112623;1199;26281;-61
2021/10/08 02:08:03;;;;;;;24.90;9.60;;;;;;;6.42;79.85;101674.09;113068;1199;24151;-59
2021/10/08 02:10:34;;;;;;;31.80;10.60;;;;;;;6.36;79.74;101677.52;112897;1192;23532;-60
2021/10/08 02:13:05;;;;;;;25.00;9.60;;;;;;;6.30;79.77;101675.98;112856;1193;22824;-60
2021/10/08 02:15:36;;;;;;;26.50;10.50;;;;;;;6.26;79.65;101680.49;113081;1199;25002;-61
2021/10/08 02:18:07;;;;;;;26.40;10.00;;;;;;;6.21;80.09;101677.30;113128;1192;22433;-62
2021/10/08 02:20:41;;;;;;;24.70;10.20;;;;;;;6.18;79.89;101682.65;113236;1199;22556;-62
2021/10/08 02:23:12;;;;;;;25.80;9.70;;;;;;;6.15;79.76;101685.06;113180;1192;24136;-61
2021/10/08 02:25:43;;;;;;;29.50;12.20;;;;;;;6.10;79.80;101686.38;112731;1199;26281;-60
2021/10/08 02:28:14;;;;;;;34.80;12.90;;;;;;;6.07;79.78;101686.34;112924;1199;22438;-63
2021/10/08 02:30:44;;;;;;;30.30;11.80;;;;;;;6.04;79.85;101687.09;113037;1199;22496;-60
2021/10/08 02:33:16;;;;;;;33.00;12.30;;;;;;;6.03;80.46;101689.00;112917;1193;22500;-60
2021/10/08 02:35:47;;;;;;;30.70;11.90;;;;;;;6.06;80.67;101691.17;112978;1193;22443;-59
2021/10/08 02:38:17;;;;;;;28.40;10.70;;;;;;;6.08;80.42;101692.27;112838;1199;22436;-60
2021/10/08 02:40:49;;;;;;;29.30;10.80;;;;;;;6.06;80.05;101691.18;112732;1199;23616;-61
2021/10/08 02:43:19;;;;;;;29.10;11.00;;;;;;;6.03;80.33;101689.79;112875;1192;25180;-62
2021/10/08 02:45:50;;;;;;;27.10;10.50;;;;;;;6.04;80.20;101696.83;112908;1199;24040;-62
2021/10/08 02:48:22;;;;;;;27.30;9.80;;;;;;;6.01;79.88;101701.77;112896;1198;24070;-62
2021/10/08 02:50:56;;;;;;;28.10;10.80;;;;;;;5.95;79.82;101699.23;113199;1193;24164;-61
2021/10/08 02:53:29;;;;;;;34.00;10.90;;;;;;;5.90;79.71;101704.27;113151;1199;25080;-61
2021/10/08 02:56:03;;;;;;;25.20;10.00;;;;;;;5.87;79.84;101703.58;112758;1199;24131;-62
2021/10/08 02:58:34;;;;;;;25.70;9.30;;;;;;;5.84;79.70;101706.22;112938;1200;22417;-61
2021/10/08 03:01:05;;;;;;;30.80;9.20;;;;;;;5.80;79.70;101706.80;113025;1200;25276;-61
2021/10/08 03:03:35;;;;;;;29.20;9.00;;;;;;;5.73;79.66;101709.39;113150;1192;22433;-60
2021/10/08 03:06:06;;;;;;;26.60;8.40;;;;;;;5.71;79.60;101710.98;112694;1200;22426;-61
2021/10/08 03:08:37;;;;;;;23.40;9.20;;;;;;;5.67;79.73;101709.77;112999;1200;23559;-60
2021/10/08 03:11:08;;;;;;;27.40;10.20;;;;;;;5.69;80.23;101709.59;112850;1192;25962;-61
2021/10/08 03:13:38;;;;;;;29.80;9.80;;;;;;;5.71;80.79;101714.79;112701;1199;22441;-60
2021/10/08 03:16:11;;;;;;;25.70;10.20;;;;;;;5.74;81.00;101716.59;112667;1192;24081;-59
2021/10/08 03:18:41;;;;;;;35.10;10.20;;;;;;;5.75;80.70;101716.48;112908;1192;25083;-61
2021/10/08 03:21:12;;;;;;;29.00;10.20;;;;;;;5.77;80.60;101716.80;112927;1199;22993;-62
2021/10/08 03:23:43;;;;;;;33.10;10.80;;;;;;;5.77;80.60;101718.77;112804;1193;22436;-60
2021/10/08 03:26:14;;;;;;;31.70;10.70;;;;;;;5.77;80.73;101722.50;112628;1200;22420;-61
2021/10/08 03:28:45;;;;;;;35.80;11.30;;;;;;;5.77;80.55;101720.91;112929;1192;22443;-62
2021/10/08 03:31:16;;;;;;;45.40;12.40;;;;;;;5.78;80.65;101720.04;112924;1192;22474;-61
2021/10/08 03:33:47;;;;;;;34.90;11.20;;;;;;;5.76;80.81;101720.84;112823;1193;25032;-62
2021/10/08 03:36:22;;;;;;;28.00;9.70;;;;;;;5.78;80.99;101719.25;112875;1199;22438;-61
2021/10/08 03:38:53;;;;;;;28.70;11.50;;;;;;;5.80;80.90;101721.36;112906;1192;24081;-61
2021/10/08 03:41:25;;;;;;;31.60;9.90;;;;;;;5.82;80.94;101721.66;112835;1198;22638;-60
2021/10/08 03:43:57;;;;;;;28.00;9.20;;;;;;;5.82;80.78;101718.97;113024;1198;24650;-61
2021/10/08 03:46:33;;;;;;;24.50;8.80;;;;;;;5.77;80.71;101715.69;112939;1190;22441;-62
2021/10/08 03:49:16;;;;;;;23.50;9.10;;;;;;;5.73;80.80;101721.20;112874;1192;24051;-60
2021/10/08 03:51:49;;;;;;;24.10;9.40;;;;;;;5.70;80.48;101723.59;112865;1192;25137;-61
2021/10/08 03:54:21;;;;;;;30.50;10.30;;;;;;;5.63;80.47;101721.20;112825;1199;25016;-60
2021/10/08 03:56:52;;;;;;;31.90;10.40;;;;;;;5.62;80.65;101723.91;112884;1192;24140;-61
2021/10/08 03:59:23;;;;;;;29.40;10.40;;;;;;;5.62;80.98;101729.45;112794;1199;24033;-60
2021/10/08 04:01:55;;;;;;;25.60;9.70;;;;;;;5.64;81.00;101723.58;112962;1199;22446;-60
2021/10/08 04:04:26;;;;;;;27.20;9.30;;;;;;;5.65;81.02;101728.30;113039;1199;24305;-57
2021/10/08 04:06:56;;;;;;;35.20;10.40;;;;;;;5.64;81.00;101727.38;112707;1199;23137;-61
2021/10/08 04:09:27;;;;;;;27.10;9.90;;;;;;;5.61;80.84;101731.02;112704;1200;22452;-60
2021/10/08 04:11:59;;;;;;;30.10;10.10;;;;;;;5.59;80.90;101731.61;112760;1199;22530;-58
2021/10/08 04:14:31;;;;;;;26.40;9.20;;;;;;;5.57;80.87;101727.98;112887;1192;22427;-60
2021/10/08 04:17:02;;;;;;;29.30;10.80;;;;;;;5.54;80.87;101729.91;112843;1199;22992;-58
2021/10/08 04:19:34;;;;;;;29.60;10.30;;;;;;;5.52;80.96;101734.20;112891;1199;24016;-59
2021/10/08 04:22:05;;;;;;;32.50;10.40;;;;;;;5.50;81.12;101730.90;112914;1200;22444;-60
2021/10/08 04:24:37;;;;;;;28.30;10.10;;;;;;;5.50;81.08;101733.65;112847;1199;22467;-57
2021/10/08 04:27:07;;;;;;;32.00;11.60;;;;;;;5.49;81.03;101731.70;113512;1171;22549;-59
2021/10/08 04:29:38;;;;;;;26.40;10.40;;;;;;;5.50;80.99;101739.38;115956;1198;25073;-61
2021/10/08 04:32:09;;;;;;;29.40;10.80;;;;;;;5.48;80.84;101744.84;113224;1197;23703;-61
2021/10/08 04:34:40;;;;;;;31.80;11.50;;;;;;;5.45;80.95;101744.23;113372;1198;24050;-61
2021/10/08 04:37:11;;;;;;;30.60;10.10;;;;;;;5.45;80.90;101750.17;113431;1198;26489;-61
2021/10/08 04:39:41;;;;;;;24.90;9.40;;;;;;;5.41;80.87;101751.70;113386;1198;22440;-61
2021/10/08 04:42:12;;;;;;;28.00;10.20;;;;;;;5.39;80.78;101752.51;113437;1190;25104;-61
2021/10/08 04:44:45;;;;;;;31.80;10.10;;;;;;;5.37;80.67;101753.55;113512;1198;25233;-61
2021/10/08 04:47:16;;;;;;;30.80;9.40;;;;;;;5.33;80.76;101755.08;113385;1183;22434;-60
2021/10/08 04:49:47;;;;;;;33.70;11.20;;;;;;;5.31;80.62;101752.64;113618;1190;24086;-60
2021/10/08 04:52:18;;;;;;;27.50;9.60;;;;;;;5.24;80.25;101753.17;113369;1198;25151;-62
2021/10/08 04:54:49;;;;;;;31.30;11.40;;;;;;;5.16;80.31;101753.79;113532;1198;25102;-61
2021/10/08 04:57:19;;;;;;;33.20;11.00;;;;;;;5.14;80.66;101753.79;113439;1190;22552;-61
2021/10/08 04:59:50;;;;;;;30.30;11.10;;;;;;;5.13;80.93;101755.53;113417;1190;22920;-61
2021/10/08 05:02:21;;;;;;;29.00;11.00;;;;;;;5.13;80.72;101759.41;113482;1197;22485;-62
2021/10/08 05:04:53;;;;;;;27.80;10.20;;;;;;;5.08;80.21;101757.78;113172;1190;25142;-60
2021/10/08 05:07:24;;;;;;;31.40;10.50;;;;;;;5.00;79.90;101764.02;112919;1198;25020;-60
2021/10/08 05:09:55;;;;;;;29.50;9.00;;;;;;;4.91;79.86;101766.82;113045;1198;22411;-60
2021/10/08 05:12:26;;;;;;;32.80;11.30;;;;;;;4.86;80.19;101766.93;113207;1198;25054;-61
2021/10/08 05:14:58;;;;;;;30.50;11.90;;;;;;;4.85;80.78;101765.43;113125;1198;22420;-60
2021/10/08 05:17:29;;;;;;;32.90;11.30;;;;;;;4.85;80.62;101763.92;112909;1198;26456;-59
2021/10/08 05:20:00;;;;;;;35.90;11.70;;;;;;;4.82;80.52;101762.27;113012;1197;25167;-58
2021/10/08 05:22:32;;;;;;;29.10;10.30;;;;;;;4.83;80.72;101761.09;113076;1198;23107;-60
2021/10/08 05:25:03;;;;;;;28.30;10.40;;;;;;;4.84;80.67;101759.98;113106;1198;25139;-59
2021/10/08 05:27:33;;;;;;;30.90;11.30;;;;;;;4.85;80.66;101763.45;113024;1197;26578;-59
2021/10/08 05:30:06;;;;;;;25.90;9.90;;;;;;;4.83;80.60;101762.75;113011;1196;25226;-62
2021/10/08 05:32:37;;;;;;;29.80;9.90;;;;;;;4.83;80.93;101763.94;114218;1190;22441;-61
2021/10/08 05:35:10;;;;;;;31.80;11.40;;;;;;;4.85;80.96;101765.67;113095;1190;22419;-59
2021/10/08 05:37:41;;;;;;;29.30;11.50;;;;;;;4.86;81.14;101767.31;113067;1191;24087;-59
2021/10/08 05:40:16;;;;;;;30.20;12.60;;;;;;;4.88;81.18;101768.89;113223;1197;22433;-60
2021/10/08 05:42:47;;;;;;;32.70;12.90;;;;;;;4.91;81.20;101776.70;113225;1197;22437;-59
2021/10/08 05:45:18;;;;;;;33.60;12.00;;;;;;;4.96;81.15;101779.77;113020;1198;25105;-60
2021/10/08 05:47:49;;;;;;;29.80;10.30;;;;;;;4.96;81.20;101782.92;113069;1196;22412;-60
2021/10/08 05:50:20;;;;;;;38.20;11.10;;;;;;;4.97;81.27;101786.64;113100;1197;22604;-60
2021/10/08 05:52:51;;;;;;;26.70;10.00;;;;;;;5.01;81.38;101783.22;113478;1190;24084;-60
2021/10/08 05:55:23;;;;;;;32.00;8.90;;;;;;;5.03;81.40;101787.55;113420;1197;23031;-60
2021/10/08 05:57:54;;;;;;;34.30;11.20;;;;;;;5.06;81.51;101794.48;113295;1196;25302;-60
2021/10/08 06:00:26;;;;;;;28.90;11.10;;;;;;;5.10;81.51;101796.77;113175;1196;22437;-59
2021/10/08 06:02:57;;;;;;;29.80;9.70;;;;;;;5.13;81.40;101796.59;113311;1190;22436;-59
2021/10/08 06:05:28;;;;;;;28.70;11.90;;;;;;;5.15;81.46;101797.45;113013;1197;22525;-61
2021/10/08 06:08:00;;;;;;;30.70;9.60;;;;;;;5.17;81.47;101802.58;113161;1197;22450;-61
2021/10/08 06:10:31;;;;;;;36.00;10.10;;;;;;;5.20;81.59;101808.10;113248;1198;22450;-58
2021/10/08 06:13:01;;;;;;;35.30;11.00;;;;;;;5.22;81.47;101809.98;113134;1198;22486;-60
2021/10/08 06:15:33;;;;;;;29.50;11.80;;;;;;;5.24;81.64;101812.11;113217;1190;22436;-59
2021/10/08 06:18:04;;;;;;;32.60;10.20;;;;;;;5.27;81.77;101811.77;113510;1196;22434;-61
2021/10/08 06:20:36;;;;;;;34.00;10.60;;;;;;;5.31;81.82;101814.44;113330;1190;22851;-61
2021/10/08 06:23:07;;;;;;;27.40;10.60;;;;;;;5.35;81.83;101813.48;113240;1196;22522;-61
2021/10/08 06:25:38;;;;;;;28.60;11.60;;;;;;;5.38;81.68;101812.48;113366;1196;22419;-61
2021/10/08 06:28:09;;;;;;;29.60;10.10;;;;;;;5.39;81.59;101812.88;113575;1196;22445;-61
2021/10/08 06:30:40;;;;;;;30.90;10.20;;;;;;;5.40;81.56;101816.04;113813;1197;22457;-60
2021/10/08 06:33:11;;;;;;;28.10;10.40;;;;;;;5.42;81.79;101816.02;113474;1197;26296;-59
2021/10/08 06:35:42;;;;;;;29.50;9.90;;;;;;;5.46;81.77;101816.08;113384;1190;24029;-61
2021/10/08 06:38:14;;;;;;;33.70;10.60;;;;;;;5.49;81.88;101819.54;113890;1196;22433;-61
2021/10/08 06:40:45;;;;;;;34.70;11.00;;;;;;;5.54;82.05;101822.98;113835;1197;22447;-61
2021/10/08 06:43:16;;;;;;;27.20;10.40;;;;;;;5.60;81.97;101827.54;113462;1198;22417;-61
2021/10/08 06:45:47;;;;;;;26.50;11.10;;;;;;;5.67;81.77;101830.41;113552;1197;22454;-60
2021/10/08 06:48:18;;;;;;;27.30;10.20;;;;;;;5.72;81.86;101830.15;113498;1190;25020;-61
2021/10/08 06:50:48;;;;;;;30.20;10.90;;;;;;;5.80;81.97;101830.23;113437;1197;22438;-61
2021/10/08 06:53:19;;;;;;;27.20;11.00;;;;;;;5.86;81.75;101827.68;113460;1196;22471;-61
2021/10/08 06:55:50;;;;;;;37.20;10.60;;;;;;;5.90;81.59;101831.45;113445;1198;22436;-61
2021/10/08 06:58:21;;;;;;;33.50;11.00;;;;;;;5.97;81.51;101832.98;113424;1197;22433;-63
2021/10/08 07:00:54;;;;;;;31.90;10.50;;;;;;;6.03;81.29;101844.32;113530;1196;22535;-61
2021/10/08 07:03:26;;;;;;;34.40;10.80;;;;;;;6.09;81.34;101852.11;113553;1196;22402;-61
2021/10/08 07:05:57;;;;;;;26.00;9.00;;;;;;;6.15;81.20;101852.85;113512;1190;22412;-61
2021/10/08 07:08:28;;;;;;;30.70;10.50;;;;;;;6.20;80.95;101846.86;113510;1197;22823;-60
2021/10/08 07:10:59;;;;;;;30.50;9.90;;;;;;;6.23;80.85;101847.15;113565;1197;25909;-60
2021/10/08 07:13:30;;;;;;;30.70;11.50;;;;;;;6.27;80.89;101851.46;113767;1196;22432;-61
2021/10/08 07:16:01;;;;;;;27.20;9.80;;;;;;;6.33;81.07;101854.73;113456;1190;25400;-61
2021/10/08 07:18:35;;;;;;;29.00;10.70;;;;;;;6.38;80.74;101861.60;113482;1183;25404;-60
2021/10/08 07:21:07;;;;;;;27.30;11.70;;;;;;;6.41;80.62;101859.73;113689;1197;22437;-59
2021/10/08 07:23:40;;;;;;;29.60;10.20;;;;;;;6.46;80.55;101862.54;113513;1197;22426;-59
2021/10/08 07:26:11;;;;;;;24.60;9.60;;;;;;;6.51;80.50;101870.10;113607;1197;22771;-60
2021/10/08 07:28:42;;;;;;;35.70;11.60;;;;;;;6.55;80.27;101872.20;113870;1198;24075;-59
2021/10/08 07:31:14;;;;;;;29.60;10.70;;;;;;;6.59;80.29;101878.17;113562;1196;22478;-59
2021/10/08 07:33:44;;;;;;;33.30;11.60;;;;;;;6.64;80.21;101881.92;113526;1196;24096;-60
2021/10/08 07:36:16;;;;;;;31.80;10.60;;;;;;;6.69;80.07;101887.91;113546;1197;25042;-59
2021/10/08 07:38:50;;;;;;;31.50;10.30;;;;;;;6.72;79.87;101889.63;113601;1190;22436;-60
2021/10/08 07:41:21;;;;;;;31.60;11.10;;;;;;;6.74;79.74;101893.23;113585;1197;22423;-61
2021/10/08 07:43:52;;;;;;;24.40;9.30;;;;;;;6.77;79.53;101896.38;113584;1198;23797;-60
2021/10/08 07:46:25;;;;;;;29.60;10.10;;;;;;;6.80;79.68;101896.90;113690;1197;22474;-60
2021/10/08 07:48:56;;;;;;;29.90;10.60;;;;;;;6.84;79.52;101892.36;113605;1196;22415;-60
2021/10/08 07:51:26;;;;;;;32.70;9.90;;;;;;;6.86;79.36;101884.54;113613;1190;23564;-59
2021/10/08 07:53:58;;;;;;;33.50;10.60;;;;;;;6.91;79.18;101881.48;113538;1196;25099;-59
2021/10/08 07:56:30;;;;;;;35.10;10.60;;;;;;;6.97;79.40;101880.38;113634;1197;24295;-60
2021/10/08 07:59:03;;;;;;;26.60;8.40;;;;;;;7.02;79.38;101888.23;113546;1197;22457;-60
2021/10/08 08:01:34;;;;;;;24.10;9.10;;;;;;;7.07;79.28;101888.25;113739;1197;22421;-59
2021/10/08 08:04:06;;;;;;;32.80;9.40;;;;;;;7.11;78.91;101888.85;113521;1197;22420;-61
2021/10/08 08:06:37;;;;;;;23.50;9.10;;;;;;;7.15;78.63;101890.06;113632;1190;22488;-59
2021/10/08 08:09:08;;;;;;;26.70;9.10;;;;;;;7.18;78.62;101891.45;113630;1197;22442;-60
2021/10/08 08:11:39;;;;;;;24.00;8.50;;;;;;;7.23;78.48;101887.59;113524;1197;25243;-60
2021/10/08 08:14:10;;;;;;;29.60;9.40;;;;;;;7.27;78.37;101888.16;113610;1197;22546;-60
2021/10/08 08:16:42;;;;;;;27.80;9.20;;;;;;;7.30;78.36;101894.15;113697;1197;22408;-58
2021/10/08 08:19:14;;;;;;;26.30;9.80;;;;;;;7.33;78.11;101895.86;113602;1197;22425;-59
2021/10/08 08:21:45;;;;;;;26.70;9.00;;;;;;;7.36;77.94;101896.14;114036;1190;23564;-60
2021/10/08 08:24:16;;;;;;;27.50;9.50;;;;;;;7.38;77.60;101889.69;113639;1196;22416;-59
2021/10/08 08:26:48;;;;;;;29.30;9.80;;;;;;;7.43;77.75;101891.85;113605;1197;22440;-60
2021/10/08 08:29:19;;;;;;;28.20;9.10;;;;;;;7.48;78.21;101890.11;113638;1196;24966;-61
2021/10/08 08:31:51;;;;;;;24.30;8.80;;;;;;;7.53;77.75;101895.19;113792;1197;22428;-59
2021/10/08 08:34:23;;;;;;;28.40;8.50;;;;;;;7.58;77.43;101892.98;113786;1197;24168;-59
2021/10/08 08:36:55;;;;;;;26.90;9.40;;;;;;;7.62;77.37;101892.77;113497;1197;25076;-60
2021/10/08 08:39:27;;;;;;;29.40;9.20;;;;;;;7.66;77.59;101892.70;113774;1196;22493;-61
2021/10/08 08:41:59;;;;;;;24.80;9.40;;;;;;;7.72;77.18;101892.61;113622;1197;22409;-60
2021/10/08 08:44:30;;;;;;;25.20;8.40;;;;;;;7.74;77.25;101890.60;113694;1196;25089;-59
2021/10/08 08:47:02;;;;;;;26.30;9.60;;;;;;;7.79;76.79;101889.10;113756;1197;25644;-59
2021/10/08 08:49:36;;;;;;;26.00;9.80;;;;;;;7.85;77.17;101891.14;113721;1197;23966;-61
2021/10/08 08:52:07;;;;;;;26.70;9.40;;;;;;;7.90;76.95;101892.65;113613;1196;22423;-59
2021/10/08 08:54:41;;;;;;;27.70;9.40;;;;;;;7.94;76.98;101889.83;113737;1190;23845;-58
2021/10/08 08:57:18;;;;;;;33.40;9.90;;;;;;;7.97;76.90;101888.81;113662;1190;22442;-61
2021/10/08 09:00:02;;;;;;;27.70;9.00;;;;;;;8.02;76.97;101888.96;113604;1190;22436;-60
2021/10/08 09:02:36;;;;;;;27.50;8.60;;;;;;;8.08;76.70;101881.72;114033;1190;22466;-60
2021/10/08 09:05:16;;;;;;;35.30;10.20;;;;;;;8.12;76.41;101883.81;113824;1197;22979;-61
2021/10/08 09:07:47;;;;;;;28.20;9.20;;;;;;;8.15;76.13;101883.73;113760;1197;22443;-60
2021/10/08 09:10:22;;;;;;;31.00;10.30;;;;;;;8.21;76.01;101884.68;113771;1197;22671;-59
2021/10/08 09:12:56;;;;;;;25.00;8.40;;;;;;;8.27;75.44;101889.92;113781;1189;22459;-60
2021/10/08 09:15:28;;;;;;;28.90;9.60;;;;;;;8.31;75.40;101888.59;113774;1197;22436;-60
2021/10/08 09:18:10;;;;;;;29.00;9.10;;;;;;;8.35;75.63;101892.80;114592;1197;24472;-61
2021/10/08 09:21:03;;;;;;;27.30;7.90;;;;;;;8.40;75.43;101889.70;114134;1196;22385;-59
2021/10/08 09:23:37;;;;;;;27.50;8.80;;;;;;;8.46;75.40;101894.20;113608;1196;24107;-61
2021/10/08 09:26:17;;;;;;;26.90;8.00;;;;;;;8.50;74.91;101893.90;113708;1197;24044;-61
2021/10/08 09:28:58;;;;;;;28.10;7.60;;;;;;;8.55;74.79;101890.85;113883;1190;24152;-60
2021/10/08 09:31:42;;;;;;;25.70;7.40;;;;;;;8.60;75.00;101889.50;114042;1196;25146;-61
2021/10/08 09:34:21;;;;;;;23.20;7.90;;;;;;;8.64;74.31;101890.05;113917;1196;22544;-61
2021/10/08 09:36:57;;;;;;;32.30;9.70;;;;;;;8.68;74.29;101886.63;114032;1196;22514;-61
2021/10/08 09:39:31;;;;;;;33.50;9.60;;;;;;;8.72;74.47;101889.98;113854;1196;23737;-60
2021/10/08 09:42:04;;;;;;;28.90;8.00;;;;;;;8.77;74.22;101887.98;113630;1196;25032;-60
2021/10/08 09:44:44;;;;;;;26.20;8.60;;;;;;;8.82;74.13;101890.44;113844;1196;23608;-59
2021/10/08 09:47:17;;;;;;;29.20;10.50;;;;;;;8.86;74.11;101890.19;113716;1196;22482;-61
2021/10/08 09:49:50;;;;;;;28.80;9.40;;;;;;;8.89;74.02;101890.79;113728;1196;24093;-60
2021/10/08 09:52:24;;;;;;;28.50;8.60;;;;;;;8.92;73.91;101890.55;113893;1190;22493;-61
2021/10/08 09:54:57;;;;;;;27.90;9.60;;;;;;;9.00;73.78;101891.98;114061;1196;22421;-59
2021/10/08 09:57:29;;;;;;;27.70;9.20;;;;;;;9.03;73.25;101890.19;113828;1190;24091;-60
2021/10/08 10:00:00;;;;;;;25.60;8.70;;;;;;;9.04;72.87;101889.92;113709;1196;25128;-61
2021/10/08 10:02:31;;;;;;;25.40;8.70;;;;;;;9.07;72.89;101888.52;114229;1196;23959;-59
2021/10/08 10:05:04;;;;;;;26.80;8.80;;;;;;;9.08;72.87;101886.19;113610;1196;22416;-59
2021/10/08 10:07:36;;;;;;;28.80;8.80;;;;;;;9.08;72.60;101884.27;114189;1196;24027;-59
2021/10/08 10:10:09;;;;;;;29.60;10.20;;;;;;;9.08;72.58;101884.65;113853;1190;22546;-59
2021/10/08 10:12:40;;;;;;;31.50;8.80;;;;;;;9.11;72.77;101884.12;113926;1196;23519;-60
2021/10/08 10:15:14;;;;;;;28.30;9.90;;;;;;;9.13;72.44;101884.40;114085;1196;22491;-61
2021/10/08 10:17:47;;;;;;;28.60;9.50;;;;;;;9.16;72.44;101880.52;113929;1190;25207;-59
2021/10/08 10:20:18;;;;;;;22.90;8.40;;;;;;;9.19;72.32;101890.40;113949;1196;25110;-60
2021/10/08 10:22:50;;;;;;;29.90;7.60;;;;;;;9.22;72.36;101884.14;113962;1191;25063;-59
2021/10/08 10:25:22;;;;;;;31.40;9.10;;;;;;;9.26;72.40;101884.21;113605;1190;25674;-61
2021/10/08 10:27:55;;;;;;;29.70;9.50;;;;;;;9.32;72.44;101883.20;113882;1196;22438;-59
2021/10/08 10:30:26;;;;;;;25.50;8.40;;;;;;;9.38;72.31;101883.31;113916;1190;23792;-60
2021/10/08 10:35:50;;;;;;;22.90;8.70;;;;;;;9.44;71.81;101890.83;113445;1196;22539;-60
2021/10/08 10:38:33;;;;;;;34.10;10.40;;;;;;;9.47;71.85;101893.23;113407;1196;24165;-62
2021/10/08 10:41:24;;;;;;;32.50;8.90;;;;;;;9.50;71.58;101894.45;113161;1184;22607;-59
2021/10/08 10:44:12;;;;;;;25.40;8.60;;;;;;;9.55;71.75;101894.65;112682;1201;22436;-61
2021/10/08 10:46:49;;;;;;;25.40;8.30;;;;;;;9.61;71.81;101891.31;112675;1201;22439;-58
2021/10/08 10:49:49;;;;;;;21.30;7.60;;;;;;;9.66;71.63;101889.44;112760;1201;22459;-61
2021/10/08 10:52:30;;;;;;;31.30;9.80;;;;;;;9.69;71.38;101891.05;112613;1201;22460;-60
2021/10/08 10:55:14;;;;;;;27.60;9.50;;;;;;;9.71;71.35;101890.76;112613;1201;22433;-59
2021/10/08 10:58:09;;;;;;;23.90;8.00;;;;;;;9.74;71.34;101887.10;112743;1201;22504;-59
2021/10/08 11:00:46;;;;;;;24.10;8.20;;;;;;;9.79;71.59;101891.05;112726;1201;22483;-59
2021/10/08 11:03:31;;;;;;;26.10;10.10;;;;;;;9.85;71.15;101891.48;112966;1193;22461;-60
2021/10/08 11:06:19;;;;;;;24.30;8.20;;;;;;;9.86;71.14;101892.65;113205;1201;22453;-60
2021/10/08 11:09:21;;;;;;;29.60;9.50;;;;;;;9.87;70.90;101893.34;112646;1201;22545;-60
2021/10/08 11:12:34;;;;;;;31.50;9.60;;;;;;;9.88;70.53;101890.05;112900;1201;25125;-58
2021/10/08 11:15:37;;;;;;;35.90;9.10;;;;;;;9.93;70.81;101891.60;113021;1201;22429;-58
2021/10/08 11:18:08;;;;;;;29.40;9.10;;;;;;;9.97;70.74;101888.25;112672;1196;22539;-61
2021/10/08 11:20:49;;;;;;;27.80;8.80;;;;;;;10.01;70.79;101894.30;112495;1202;22427;-60
2021/10/08 11:23:29;;;;;;;25.70;8.20;;;;;;;10.05;70.81;101892.02;113064;1199;25110;-58
2021/10/08 11:26:02;;;;;;;28.70;9.10;;;;;;;10.08;70.78;101891.56;112762;1200;22989;-59
2021/10/08 11:28:36;;;;;;;21.60;7.40;;;;;;;10.09;70.60;101890.97;112911;1200;24036;-60
2021/10/08 11:31:08;;;;;;;26.40;10.00;;;;;;;10.12;70.64;101886.38;112903;1199;22414;-60
2021/10/08 11:33:43;;;;;;;26.60;9.60;;;;;;;10.16;70.56;101888.52;112988;1199;22442;-59
2021/10/08 11:36:28;;;;;;;21.50;7.50;;;;;;;10.20;70.19;101884.90;113070;1200;24038;-57
2021/10/08 11:39:16;;;;;;;28.40;8.90;;;;;;;10.24;70.36;101885.75;112807;1200;22441;-60
2021/10/08 11:42:09;;;;;;;28.20;8.40;;;;;;;10.26;70.20;101886.84;112968;1200;22448;-61